Time;durP1;ratioP1;P1;durP2;ratioP2;P2;SDS_P1;SDS_P2;PMS_P1;PMS_P2;Temp;Humidity;BMP_temperature;BMP_pressure;BME280_temperature;BME280_humidity;BME280_pressure;Samples;Min_cycle;Max_cycle;Signal;HPM_P1;HPM_P2
2022/04/15 00:00:27;;;;;;;2.20;2.10;;;13.10;99.90;;;;;;5034441;28;20660;-68
2022/04/15 00:02:53;;;;;;;2.97;2.77;;;13.10;99.90;;;;;;5034166;28;20524;-68
2022/04/15 00:05:37;;;;;;;2.03;1.93;;;13.00;99.90;;;;;;5034026;28;20523;-68
2022/04/15 00:08:11;;;;;;;1.47;1.47;;;13.00;99.90;;;;;;5034311;28;20421;-68
2022/04/15 00:10:39;;;;;;;2.17;1.97;;;13.00;99.90;;;;;;5034057;28;20572;-68
2022/04/15 00:13:08;;;;;;;1.35;1.25;;;13.00;99.90;;;;;;5034301;28;20419;-69
2022/04/15 00:15:34;;;;;;;2.47;1.92;;;13.00;99.90;;;;;;5033655;28;20210;-69
2022/04/15 00:18:00;;;;;;;2.67;2.30;;;13.10;99.90;;;;;;5034046;28;20175;-69
2022/04/15 00:20:26;;;;;;;2.83;2.07;;;13.10;99.90;;;;;;5033485;28;20209;-69
2022/04/15 00:22:53;;;;;;;8.33;5.77;;;13.10;99.90;;;;;;5033707;28;20184;-69
2022/04/15 00:25:19;;;;;;;5.30;4.67;;;13.10;99.90;;;;;;5033552;28;20431;-69
2022/04/15 00:27:44;;;;;;;2.47;2.30;;;13.10;99.90;;;;;;5033816;28;20420;-69
2022/04/15 00:30:11;;;;;;;3.03;2.33;;;13.10;99.90;;;;;;5035736;28;20413;-69
2022/04/15 00:32:37;;;;;;;2.03;1.83;;;13.10;99.90;;;;;;5040602;28;20258;-69
2022/04/15 00:35:04;;;;;;;1.83;1.73;;;13.10;99.90;;;;;;5041892;28;20860;-70
2022/04/15 00:37:31;;;;;;;3.23;1.87;;;13.10;99.90;;;;;;5039575;28;20427;-68
2022/04/15 00:39:57;;;;;;;5.00;2.47;;;13.10;99.90;;;;;;5034243;28;20470;-70
2022/04/15 00:42:24;;;;;;;2.80;2.53;;;13.10;99.90;;;;;;5037198;28;20833;-69
2022/04/15 00:45:00;;;;;;;2.70;2.57;;;13.20;99.90;;;;;;5038358;28;20430;-68
2022/04/15 00:47:58;;;;;;;2.10;1.90;;;13.10;99.90;;;;;;5035543;28;20407;-68
2022/04/15 00:50:28;;;;;;;2.33;2.13;;;13.10;99.90;;;;;;5033740;28;20427;-69
2022/04/15 00:52:55;;;;;;;3.27;3.00;;;13.20;99.90;;;;;;5033363;28;20547;-68
2022/04/15 00:55:23;;;;;;;2.90;2.70;;;13.20;99.90;;;;;;5032248;28;20490;-69
2022/04/15 00:57:55;;;;;;;1.60;1.50;;;13.20;99.90;;;;;;5032164;28;20938;-68
2022/04/15 01:00:22;;;;;;;2.70;2.33;;;13.20;99.90;;;;;;5033678;28;20482;-69
2022/04/15 01:02:48;;;;;;;1.90;1.70;;;13.20;99.90;;;;;;5033095;28;20508;-68
2022/04/15 01:05:14;;;;;;;1.90;1.80;;;13.20;99.90;;;;;;5033105;28;20449;-69
2022/04/15 01:07:42;;;;;;;2.40;2.30;;;13.30;99.90;;;;;;5032996;28;20579;-69
2022/04/15 01:10:10;;;;;;;2.43;2.23;;;13.20;99.90;;;;;;5033367;28;20813;-69
2022/04/15 01:12:38;;;;;;;2.60;2.23;;;13.30;99.90;;;;;;5033283;28;20411;-69
2022/04/15 01:15:07;;;;;;;2.67;2.47;;;13.30;99.90;;;;;;5032487;28;20581;-69
2022/04/15 01:17:35;;;;;;;4.13;2.53;;;13.30;99.90;;;;;;5033272;28;20562;-69
2022/04/15 01:20:07;;;;;;;2.77;2.57;;;13.30;99.90;;;;;;5032873;28;20504;-69
2022/04/15 01:22:38;;;;;;;2.60;2.40;;;13.30;99.90;;;;;;5033130;28;20405;-69
2022/04/15 01:25:08;;;;;;;2.20;2.10;;;13.30;99.90;;;;;;5032787;28;20482;-69
2022/04/15 01:27:36;;;;;;;2.60;2.40;;;13.30;99.90;;;;;;5033079;28;20406;-69
2022/04/15 01:30:09;;;;;;;2.30;2.10;;;13.30;99.90;;;;;;5031699;28;20434;-68
2022/04/15 01:32:34;;;;;;;2.57;2.37;;;13.30;99.90;;;;;;5035594;28;20430;-69
2022/04/15 01:35:00;;;;;;;2.83;2.63;;;13.30;99.90;;;;;;5035176;28;20449;-69
2022/04/15 01:37:30;;;;;;;3.57;3.27;;;13.30;99.90;;;;;;5037334;28;20176;-69
2022/04/15 01:39:56;;;;;;;2.13;1.97;;;13.30;99.90;;;;;;5036976;28;20543;-69
2022/04/15 01:42:22;;;;;;;5.83;3.30;;;13.20;99.90;;;;;;5036966;28;20405;-69
2022/04/15 01:44:48;;;;;;;3.27;2.67;;;13.20;99.90;;;;;;5036437;28;21020;-69
2022/04/15 01:47:18;;;;;;;3.20;3.00;;;13.20;99.90;;;;;;5036877;28;20493;-69
2022/04/15 01:49:44;;;;;;;3.43;2.90;;;13.10;99.90;;;;;;5036662;28;20456;-68
2022/04/15 01:52:10;;;;;;;3.00;2.60;;;13.10;99.90;;;;;;5036546;28;20532;-68
2022/04/15 01:54:36;;;;;;;2.90;2.73;;;13.10;99.90;;;;;;5036268;28;20424;-68
2022/04/15 01:57:02;;;;;;;3.53;2.93;;;13.10;99.90;;;;;;5036554;28;20464;-68
2022/04/15 01:59:28;;;;;;;2.83;2.63;;;13.00;99.90;;;;;;5036562;28;20455;-68
2022/04/15 02:01:54;;;;;;;2.30;2.10;;;13.00;99.90;;;;;;5036570;28;20908;-68
2022/04/15 02:04:24;;;;;;;2.63;2.43;;;13.00;99.90;;;;;;5036243;28;20470;-68
2022/04/15 02:06:50;;;;;;;4.20;2.77;;;12.90;99.90;;;;;;5036654;28;20432;-69
2022/04/15 02:09:15;;;;;;;2.80;2.60;;;12.90;99.90;;;;;;5036808;28;20423;-68
2022/04/15 02:11:41;;;;;;;2.50;2.30;;;12.80;99.90;;;;;;5036468;28;20191;-69
2022/04/15 02:14:07;;;;;;;2.93;2.27;;;12.80;99.90;;;;;;5035649;28;20187;-68
2022/04/15 02:16:34;;;;;;;3.57;2.80;;;12.70;99.90;;;;;;5036445;28;20533;-68
2022/04/15 02:18:59;;;;;;;2.90;2.70;;;12.70;99.90;;;;;;5036325;28;20537;-68
2022/04/15 02:21:25;;;;;;;5.67;3.20;;;12.60;99.90;;;;;;5036302;28;20441;-68
2022/04/15 02:23:51;;;;;;;2.70;2.50;;;12.50;99.90;;;;;;5034534;28;20625;-68
2022/04/15 02:26:16;;;;;;;3.40;3.10;;;12.50;99.90;;;;;;5036165;28;20195;-68
2022/04/15 02:28:42;;;;;;;4.23;3.20;;;12.40;99.90;;;;;;5035722;28;20228;-69
2022/04/15 02:31:07;;;;;;;3.07;2.77;;;12.30;99.90;;;;;;5035993;28;20206;-69
2022/04/15 02:33:33;;;;;;;3.20;2.90;;;12.30;99.90;;;;;;5035556;28;20166;-68
2022/04/15 02:35:59;;;;;;;3.60;3.30;;;12.30;99.90;;;;;;5035820;28;20207;-70
2022/04/15 02:38:24;;;;;;;2.83;2.63;;;12.20;99.90;;;;;;5035984;28;20185;-69
2022/04/15 02:40:50;;;;;;;3.03;2.80;;;12.20;99.90;;;;;;5036555;28;20631;-70
2022/04/15 02:43:17;;;;;;;3.30;3.10;;;12.20;99.90;;;;;;5034833;28;20171;-68
2022/04/15 02:45:43;;;;;;;3.30;3.00;;;12.20;99.90;;;;;;5035746;28;20780;-69
2022/04/15 02:48:08;;;;;;;3.40;2.70;;;12.10;99.90;;;;;;5035796;28;20195;-69
2022/04/15 02:50:34;;;;;;;2.83;2.30;;;12.10;99.90;;;;;;5035714;28;20207;-69
2022/04/15 02:53:01;;;;;;;10.03;3.33;;;12.20;99.90;;;;;;5035526;28;20750;-69
2022/04/15 02:55:27;;;;;;;3.17;2.63;;;12.10;99.90;;;;;;5035626;28;20203;-69
2022/04/15 02:57:53;;;;;;;3.53;2.70;;;12.00;99.90;;;;;;5035330;28;20179;-69
2022/04/15 03:00:19;;;;;;;4.00;3.60;;;12.00;99.90;;;;;;5035688;28;20409;-69
2022/04/15 03:02:45;;;;;;;3.47;3.25;;;11.90;99.90;;;;;;5035225;28;20492;-69
2022/04/15 03:05:11;;;;;;;5.97;3.40;;;11.90;99.90;;;;;;5035115;28;20198;-68
2022/04/15 03:07:37;;;;;;;2.70;2.50;;;11.90;99.90;;;;;;5035488;28;20568;-69
2022/04/15 03:10:05;;;;;;;3.17;2.95;;;11.80;99.90;;;;;;5035241;28;20198;-68
2022/04/15 03:12:38;;;;;;;2.97;2.67;;;11.70;99.90;;;;;;5033777;28;20660;-69
2022/04/15 03:15:06;;;;;;;3.40;3.10;;;11.70;99.90;;;;;;5034446;28;20221;-68
2022/04/15 03:17:34;;;;;;;1.92;1.83;;;11.60;99.90;;;;;;5015335;28;20163;-67
2022/04/15 03:20:02;;;;;;;3.28;2.75;;;11.50;99.90;;;;;;5015349;28;20175;-69
2022/04/15 03:22:36;;;;;;;2.30;1.95;;;11.50;99.90;;;;;;5014268;28;20229;-68
2022/04/15 03:25:02;;;;;;;2.83;2.40;;;11.40;99.90;;;;;;5014803;28;20282;-68
2022/04/15 03:27:27;;;;;;;2.27;2.00;;;11.30;99.90;;;;;;5030729;28;20273;-68
2022/04/15 03:29:53;;;;;;;2.20;2.00;;;11.30;99.90;;;;;;5034899;28;20440;-68
2022/04/15 03:32:19;;;;;;;3.57;2.47;;;11.30;99.90;;;;;;5035060;28;20170;-68
2022/04/15 03:34:44;;;;;;;2.97;2.73;;;11.20;99.90;;;;;;5034351;28;20169;-68
2022/04/15 03:37:10;;;;;;;3.70;3.40;;;11.10;99.90;;;;;;5034666;28;20173;-68
2022/04/15 03:39:35;;;;;;;2.93;2.73;;;11.10;99.90;;;;;;5034775;28;20170;-68
2022/04/15 03:42:02;;;;;;;2.67;2.47;;;11.00;99.90;;;;;;5034395;28;20178;-68
2022/04/15 03:44:28;;;;;;;2.63;1.90;;;11.00;99.90;;;;;;5033011;28;20179;-67
2022/04/15 03:46:53;;;;;;;2.63;2.23;;;11.00;99.90;;;;;;5034740;28;20173;-69
2022/04/15 03:49:19;;;;;;;2.50;2.30;;;11.00;99.90;;;;;;5034318;28;20222;-69
2022/04/15 03:51:44;;;;;;;2.50;2.30;;;10.90;99.90;;;;;;5034312;28;20178;-69
2022/04/15 03:54:10;;;;;;;2.27;2.17;;;10.90;99.90;;;;;;5034288;28;20169;-67
2022/04/15 03:56:36;;;;;;;2.20;2.00;;;10.90;99.90;;;;;;5033217;28;20198;-69
2022/04/15 03:59:03;;;;;;;2.55;2.45;;;10.90;99.90;;;;;;5033163;28;20177;-69
2022/04/15 04:01:29;;;;;;;2.80;2.58;;;10.90;99.90;;;;;;5034562;28;20174;-68
2022/04/15 04:03:55;;;;;;;2.50;2.28;;;10.90;99.90;;;;;;5033794;28;20256;-68
2022/04/15 04:06:21;;;;;;;2.57;2.37;;;10.90;99.90;;;;;;5033955;28;20285;-69
2022/04/15 04:08:49;;;;;;;2.47;2.23;;;10.90;99.90;;;;;;5034597;28;20396;-68
2022/04/15 04:11:19;;;;;;;1.92;1.83;;;10.90;99.90;;;;;;5034269;28;20186;-69
2022/04/15 04:13:45;;;;;;;2.67;2.47;;;10.90;99.90;;;;;;5033805;28;20166;-69
2022/04/15 04:16:13;;;;;;;2.73;1.90;;;10.90;99.90;;;;;;5034184;28;20194;-69
2022/04/15 04:18:42;;;;;;;2.17;2.08;;;10.90;99.90;;;;;;5032783;28;20648;-69
2022/04/15 04:21:08;;;;;;;2.10;1.90;;;10.80;99.90;;;;;;5033589;28;20182;-69
2022/04/15 04:23:34;;;;;;;4.05;2.92;;;10.70;99.90;;;;;;5033418;28;20175;-69
2022/04/15 04:26:01;;;;;;;2.30;2.20;;;10.70;99.90;;;;;;5032475;28;20193;-69
2022/04/15 04:28:27;;;;;;;2.15;2.05;;;10.70;99.90;;;;;;5033932;28;20170;-68
2022/04/15 04:30:52;;;;;;;2.33;2.20;;;10.70;99.90;;;;;;5033698;28;20206;-69
2022/04/15 04:33:19;;;;;;;2.57;2.37;;;10.70;99.90;;;;;;5033414;28;20169;-69
2022/04/15 04:35:44;;;;;;;3.08;2.65;;;10.70;99.90;;;;;;5033583;28;20233;-69
2022/04/15 04:38:10;;;;;;;2.67;2.47;;;10.70;99.90;;;;;;5033723;28;20178;-67
2022/04/15 04:40:36;;;;;;;2.70;2.47;;;10.60;99.90;;;;;;5033728;28;20248;-69
2022/04/15 04:43:04;;;;;;;2.40;2.20;;;10.60;99.90;;;;;;5033918;28;20173;-69
2022/04/15 04:45:30;;;;;;;4.30;2.97;;;10.60;99.90;;;;;;5033604;28;20190;-69
2022/04/15 04:47:56;;;;;;;2.35;2.13;;;10.60;99.90;;;;;;5033612;28;20199;-69
2022/04/15 04:50:22;;;;;;;2.78;2.45;;;10.70;99.90;;;;;;5033270;28;20530;-69
2022/04/15 04:52:51;;;;;;;2.17;1.97;;;10.70;99.90;;;;;;5033498;28;20169;-69
2022/04/15 04:55:18;;;;;;;2.38;2.25;;;10.80;99.90;;;;;;5033143;28;20490;-69
2022/04/15 04:57:43;;;;;;;2.53;2.33;;;10.90;99.90;;;;;;5033486;28;20206;-68
2022/04/15 05:00:11;;;;;;;2.77;2.57;;;11.10;99.90;;;;;;5033229;28;20201;-69
2022/04/15 05:02:37;;;;;;;2.30;2.20;;;11.30;99.90;;;;;;5033215;28;20409;-69
2022/04/15 05:05:04;;;;;;;3.30;2.58;;;11.50;99.90;;;;;;5032734;28;20593;-69
2022/04/15 05:07:30;;;;;;;2.90;2.70;;;11.70;99.90;;;;;;5032835;28;20178;-69
2022/04/15 05:09:55;;;;;;;2.80;2.47;;;11.80;99.90;;;;;;5033349;28;20195;-69
2022/04/15 05:12:21;;;;;;;3.40;2.27;;;11.90;99.90;;;;;;5033604;28;20166;-69
2022/04/15 05:14:47;;;;;;;3.03;2.83;;;12.10;99.90;;;;;;5032779;28;20649;-70
2022/04/15 05:17:13;;;;;;;3.50;2.60;;;12.30;99.90;;;;;;5033175;28;20465;-69
2022/04/15 05:19:39;;;;;;;2.33;1.93;;;12.50;99.90;;;;;;5032991;28;20188;-67
2022/04/15 05:22:04;;;;;;;4.47;2.97;;;12.70;99.90;;;;;;5033384;28;20180;-69
2022/04/15 05:24:30;;;;;;;2.70;2.50;;;12.80;99.90;;;;;;5032876;28;20319;-68
2022/04/15 05:26:56;;;;;;;3.70;2.73;;;12.90;99.90;;;;;;5033276;28;20173;-69
2022/04/15 05:29:21;;;;;;;3.23;3.03;;;13.00;99.90;;;;;;5032964;28;20215;-69
2022/04/15 05:31:47;;;;;;;4.83;2.50;;;13.00;99.90;;;;;;5033020;28;20169;-69
2022/04/15 05:34:13;;;;;;;2.57;2.37;;;13.10;99.90;;;;;;5032496;28;20258;-69
2022/04/15 05:36:38;;;;;;;3.27;2.97;;;13.20;99.90;;;;;;5033021;28;20610;-69
2022/04/15 05:39:04;;;;;;;2.07;1.97;;;13.40;99.90;;;;;;5032993;28;20225;-69
2022/04/15 05:41:29;;;;;;;4.73;2.57;;;13.50;99.90;;;;;;5033342;28;20513;-69
2022/04/15 05:43:57;;;;;;;2.10;2.00;;;13.70;99.90;;;;;;5032649;28;20174;-69
2022/04/15 05:46:23;;;;;;;1.70;1.60;;;13.90;99.90;;;;;;5032527;28;20675;-69
2022/04/15 05:48:48;;;;;;;2.30;1.87;;;14.00;99.90;;;;;;5032806;28;20421;-69
2022/04/15 05:51:14;;;;;;;2.70;2.50;;;14.10;99.90;;;;;;5032720;28;20178;-69
2022/04/15 05:53:39;;;;;;;3.20;2.87;;;14.20;99.90;;;;;;5032632;28;20176;-69
2022/04/15 05:56:05;;;;;;;2.00;1.90;;;14.30;99.90;;;;;;5032835;28;20209;-69
2022/04/15 05:58:31;;;;;;;2.50;2.30;;;14.40;99.90;;;;;;5032909;28;20166;-69
2022/04/15 06:00:56;;;;;;;5.30;2.40;;;14.50;99.90;;;;;;5033069;28;20643;-69
2022/04/15 06:03:22;;;;;;;3.20;2.30;;;14.70;99.90;;;;;;5032102;28;20190;-69
2022/04/15 06:05:49;;;;;;;2.33;2.13;;;14.70;99.90;;;;;;5032354;28;20221;-67
2022/04/15 06:08:16;;;;;;;2.70;2.50;;;14.80;99.90;;;;;;5032842;28;20178;-71
2022/04/15 06:10:42;;;;;;;2.27;2.07;;;14.90;99.90;;;;;;5032841;28;20547;-73
2022/04/15 06:13:14;;;;;;;2.20;2.00;;;15.10;99.90;;;;;;5032410;28;20409;-69
2022/04/15 06:15:41;;;;;;;2.57;2.37;;;15.20;99.90;;;;;;5033038;28;20783;-70
2022/04/15 06:18:08;;;;;;;1.83;1.73;;;15.30;99.90;;;;;;5031672;28;20417;-69
2022/04/15 06:20:35;;;;;;;3.10;2.33;;;15.50;99.90;;;;;;5035998;28;20406;-69
2022/04/15 06:23:38;;;;;;;2.10;1.90;;;15.70;99.90;;;;;;5036207;28;20410;-70
2022/04/15 06:26:04;;;;;;;2.77;2.57;;;15.80;99.90;;;;;;5032051;28;20450;-71
2022/04/15 06:28:30;;;;;;;3.70;2.83;;;16.00;99.90;;;;;;5036299;28;20802;-69
2022/04/15 06:30:57;;;;;;;2.67;2.50;;;16.20;99.90;;;;;;5028414;28;20457;-69
2022/04/15 06:33:23;;;;;;;3.00;2.80;;;16.50;99.90;;;;;;5025463;28;20173;-68
2022/04/15 06:35:50;;;;;;;2.50;2.30;;;16.90;99.90;;;;;;5034355;28;20426;-69
2022/04/15 06:38:16;;;;;;;4.20;2.37;;;17.20;99.90;;;;;;5034256;28;20278;-69
2022/04/15 06:40:42;;;;;;;6.60;4.67;;;17.50;99.90;;;;;;5035231;28;20448;-70
2022/04/15 06:43:08;;;;;;;2.50;2.30;;;17.80;99.90;;;;;;5017271;28;20182;-70
2022/04/15 06:45:34;;;;;;;2.70;2.50;;;18.20;99.90;;;;;;5029743;28;20534;-72
2022/04/15 06:48:00;;;;;;;2.53;2.33;;;18.50;99.90;;;;;;5034655;28;20424;-71
2022/04/15 06:50:26;;;;;;;2.77;2.57;;;18.50;99.90;;;;;;5035121;28;20501;-70
2022/04/15 06:52:52;;;;;;;2.70;2.50;;;18.50;99.90;;;;;;5034998;28;20676;-73
2022/04/15 06:55:17;;;;;;;3.13;2.87;;;18.60;99.80;;;;;;5034937;28;20329;-71
2022/04/15 06:57:43;;;;;;;3.43;3.10;;;18.80;99.70;;;;;;5026122;28;20512;-69
2022/04/15 07:00:13;;;;;;;3.17;2.97;;;19.10;99.50;;;;;;5021925;28;20179;-70
2022/04/15 07:02:41;;;;;;;3.23;3.00;;;19.50;99.00;;;;;;5034843;28;20912;-74
2022/04/15 07:05:09;;;;;;;3.53;3.27;;;20.10;98.30;;;;;;5034552;28;20462;-72
2022/04/15 07:07:35;;;;;;;4.00;3.70;;;20.50;97.70;;;;;;5035116;28;20441;-71
2022/04/15 07:10:02;;;;;;;4.23;3.57;;;21.00;96.90;;;;;;5018872;28;20952;-71
2022/04/15 07:12:27;;;;;;;4.40;4.00;;;21.50;96.70;;;;;;5034732;28;20859;-71
2022/04/15 07:14:53;;;;;;;3.80;3.40;;;21.90;94.70;;;;;;5034209;28;20447;-71
2022/04/15 07:17:19;;;;;;;3.97;3.53;;;22.40;94.60;;;;;;5035004;28;20171;-72
2022/04/15 07:19:44;;;;;;;4.80;4.40;;;22.70;93.80;;;;;;5034528;28;20693;-71
2022/04/15 07:22:10;;;;;;;4.67;4.10;;;23.00;93.10;;;;;;5034048;28;20264;-72
2022/04/15 07:24:36;;;;;;;4.63;4.30;;;23.00;92.50;;;;;;5034427;28;20182;-71
2022/04/15 07:27:02;;;;;;;5.33;4.93;;;22.90;93.10;;;;;;5034893;28;20182;-69
2022/04/15 07:29:30;;;;;;;4.43;4.03;;;22.70;93.00;;;;;;5033967;28;20240;-69
2022/04/15 07:31:56;;;;;;;4.77;4.30;;;22.50;93.30;;;;;;5034604;28;20390;-70
2022/04/15 07:34:22;;;;;;;7.10;5.57;;;22.70;93.20;;;;;;5033797;28;20416;-69
2022/04/15 07:36:54;;;;;;;5.73;5.23;;;22.90;93.70;;;;;;5019636;28;20452;-71
2022/04/15 07:39:20;;;;;;;5.10;4.57;;;23.00;92.50;;;;;;5034458;28;20168;-70
2022/04/15 07:41:47;;;;;;;7.80;4.30;;;22.80;92.60;;;;;;5028622;28;20993;-73
2022/04/15 07:44:14;;;;;;;5.50;4.70;;;23.00;92.70;;;;;;5032078;28;20431;-68
2022/04/15 07:46:42;;;;;;;6.23;4.60;;;23.20;92.80;;;;;;5033885;28;20422;-69
2022/04/15 07:49:08;;;;;;;4.23;3.70;;;23.60;92.40;;;;;;5034115;28;20416;-70
2022/04/15 07:51:35;;;;;;;7.23;4.90;;;24.20;92.40;;;;;;5033811;28;20418;-72
2022/04/15 07:54:01;;;;;;;7.70;5.17;;;24.90;90.20;;;;;;5033716;28;20439;-68
2022/04/15 07:56:27;;;;;;;6.07;5.40;;;25.40;88.10;;;;;;5033989;28;20441;-71
2022/04/15 07:58:53;;;;;;;5.07;4.67;;;25.90;85.80;;;;;;5033777;28;20441;-70
2022/04/15 08:01:19;;;;;;;8.50;5.47;;;26.40;83.80;;;;;;5033978;28;20585;-69
2022/04/15 08:03:46;;;;;;;5.97;5.37;;;26.70;82.50;;;;;;5033177;28;20186;-69
2022/04/15 08:06:13;;;;;;;5.43;4.73;;;27.10;80.60;;;;;;5065744;28;20833;-69
2022/04/15 08:08:38;;;;;;;5.73;5.13;;;27.50;78.90;;;;;;5033254;28;20979;-68
2022/04/15 08:11:04;;;;;;;7.50;6.73;;;28.00;79.20;;;;;;5032999;28;20435;-70
2022/04/15 08:13:30;;;;;;;7.70;6.50;;;28.40;75.90;;;;;;5032686;28;20659;-70
2022/04/15 08:15:56;;;;;;;6.73;6.13;;;28.90;73.30;;;;;;5031931;28;20197;-71
2022/04/15 08:18:24;;;;;;;6.80;6.17;;;29.10;71.80;;;;;;5032479;28;20162;-69
2022/04/15 08:20:51;;;;;;;6.60;6.00;;;29.20;70.40;;;;;;5033704;28;20431;-69
2022/04/15 08:23:20;;;;;;;6.77;6.17;;;29.20;70.70;;;;;;5032986;28;20906;-72
2022/04/15 08:25:46;;;;;;;5.83;5.33;;;29.30;68.90;;;;;;5033181;28;20415;-69
2022/04/15 08:28:12;;;;;;;10.03;6.43;;;29.50;69.90;;;;;;5033571;28;20375;-69
2022/04/15 08:30:38;;;;;;;7.10;6.43;;;29.30;66.90;;;;;;5033431;28;20516;-71
2022/04/15 08:33:07;;;;;;;6.00;5.47;;;29.10;67.90;;;;;;5032311;28;20542;-69
2022/04/15 08:35:36;;;;;;;8.17;6.40;;;29.10;70.30;;;;;;5033407;28;20426;-70
2022/04/15 08:38:02;;;;;;;7.50;6.80;;;29.50;70.10;;;;;;5033617;28;20417;-70
2022/04/15 08:40:31;;;;;;;6.80;6.20;;;30.20;68.70;;;;;;5033554;28;20448;-68
2022/04/15 08:42:58;;;;;;;7.70;6.90;;;30.30;66.10;;;;;;5033129;28;20887;-70
2022/04/15 08:45:27;;;;;;;7.50;6.90;;;30.20;65.00;;;;;;5032175;28;21182;-69
2022/04/15 08:48:00;;;;;;;7.73;7.07;;;30.00;64.80;;;;;;5033787;28;20396;-71
2022/04/15 08:50:30;;;;;;;6.70;6.17;;;29.70;63.70;;;;;;5033546;28;20399;-68
2022/04/15 08:53:00;;;;;;;7.87;7.17;;;29.70;65.40;;;;;;5033286;28;20443;-70
2022/04/15 08:55:28;;;;;;;7.47;6.77;;;29.90;64.40;;;;;;5033184;28;20428;-69
2022/04/15 08:57:56;;;;;;;8.03;7.27;;;30.20;63.60;;;;;;5033852;28;20409;-68
2022/04/15 09:00:24;;;;;;;7.20;6.60;;;30.40;63.40;;;;;;5033829;28;20453;-69
2022/04/15 09:02:50;;;;;;;7.23;6.63;;;30.30;63.90;;;;;;5033139;28;20471;-71
2022/04/15 09:05:21;;;;;;;8.80;8.00;;;29.90;63.50;;;;;;5032941;28;20608;-71
2022/04/15 09:07:47;;;;;;;7.30;6.70;;;29.40;62.30;;;;;;5033253;28;20419;-71
2022/04/15 09:10:14;;;;;;;8.00;7.40;;;29.40;62.90;;;;;;5033265;28;20760;-71
2022/04/15 09:12:41;;;;;;;7.77;7.17;;;29.50;61.60;;;;;;5033730;28;20520;-68
2022/04/15 09:15:06;;;;;;;7.07;6.47;;;29.60;60.60;;;;;;5032966;28;20407;-72
2022/04/15 09:17:36;;;;;;;7.60;6.70;;;29.50;62.70;;;;;;5033338;28;20834;-71
2022/04/15 09:20:06;;;;;;;7.30;6.70;;;29.50;61.70;;;;;;5033029;28;20190;-67
2022/04/15 09:22:31;;;;;;;7.87;7.17;;;29.80;59.70;;;;;;5033216;28;20782;-69
2022/04/15 09:24:58;;;;;;;8.77;7.97;;;30.20;59.30;;;;;;5032516;28;20420;-68
2022/04/15 09:27:24;;;;;;;7.30;6.60;;;29.90;60.10;;;;;;5033288;28;20232;-71
2022/04/15 09:29:52;;;;;;;7.23;6.63;;;29.80;61.60;;;;;;5033221;28;20420;-71
2022/04/15 09:32:18;;;;;;;8.33;7.07;;;29.60;60.30;;;;;;5033216;28;20376;-69
2022/04/15 09:34:59;;;;;;;8.30;7.13;;;29.50;61.40;;;;;;5032340;28;20439;-71
2022/04/15 09:37:27;;;;;;;8.73;7.93;;;29.90;60.10;;;;;;5033108;28;20410;-72
2022/04/15 09:40:25;;;;;;;8.97;8.17;;;29.80;59.90;;;;;;5032683;28;20790;-68
2022/04/15 09:42:56;;;;;;;8.50;7.67;;;29.70;59.10;;;;;;5028739;28;20749;-68
2022/04/15 09:45:44;;;;;;;6.90;6.30;;;29.50;62.10;;;;;;5032715;28;20474;-70
2022/04/15 09:48:10;;;;;;;8.83;8.03;;;29.60;62.70;;;;;;5033162;28;20416;-71
2022/04/15 09:50:43;;;;;;;8.00;7.33;;;29.90;62.50;;;;;;5033061;28;20910;-69
2022/04/15 09:53:14;;;;;;;6.80;6.30;;;30.30;59.30;;;;;;5032678;28;20174;-70
2022/04/15 09:55:47;;;;;;;8.10;7.50;;;30.20;59.20;;;;;;5036794;28;20970;-70
2022/04/15 09:58:14;;;;;;;9.10;8.30;;;30.20;58.70;;;;;;5036093;28;20431;-70
2022/04/15 10:00:42;;;;;;;7.43;6.83;;;29.90;58.50;;;;;;5036763;28;20526;-71
2022/04/15 10:03:14;;;;;;;8.07;7.30;;;30.10;58.50;;;;;;5035991;28;20486;-70
2022/04/15 10:05:41;;;;;;;8.17;7.47;;;30.00;58.30;;;;;;5036393;28;20435;-70
2022/04/15 10:08:08;;;;;;;7.90;7.20;;;29.50;58.90;;;;;;5036611;28;20401;-70
2022/04/15 10:10:35;;;;;;;7.07;6.47;;;29.20;59.70;;;;;;5036551;28;20488;-67
2022/04/15 10:13:05;;;;;;;8.87;8.10;;;29.40;59.50;;;;;;5036143;28;20787;-71
2022/04/15 10:15:37;;;;;;;9.87;8.87;;;29.30;59.10;;;;;;5036170;28;20425;-71
2022/04/15 10:18:03;;;;;;;8.03;7.33;;;29.00;59.30;;;;;;5036313;28;20379;-68
2022/04/15 10:20:31;;;;;;;8.90;8.20;;;28.70;59.10;;;;;;5036327;28;20464;-72
2022/04/15 10:23:11;;;;;;;8.87;8.07;;;28.80;61.50;;;;;;5036022;28;20763;-70
2022/04/15 10:25:38;;;;;;;10.03;9.13;;;29.00;60.00;;;;;;5036090;28;20511;-68
2022/04/15 10:28:09;;;;;;;8.87;8.00;;;29.10;58.90;;;;;;5036042;28;20862;-67
2022/04/15 10:30:35;;;;;;;8.13;7.33;;;29.30;59.20;;;;;;5016352;28;20425;-71
2022/04/15 10:33:01;;;;;;;8.67;7.77;;;29.40;57.80;;;;;;5016187;28;20472;-66
2022/04/15 10:35:28;;;;;;;7.93;7.23;;;29.40;59.30;;;;;;5015940;28;20202;-70
2022/04/15 10:38:11;;;;;;;8.03;7.23;;;29.50;59.00;;;;;;5016078;28;20527;-68
2022/04/15 10:40:43;;;;;;;9.70;8.70;;;28.90;59.60;;;;;;5019248;28;20431;-70
2022/04/15 10:43:20;;;;;;;8.63;7.83;;;28.20;61.20;;;;;;5035623;28;20402;-69
2022/04/15 10:45:46;;;;;;;6.83;6.23;;;28.20;58.90;;;;;;5035682;28;20399;-70
2022/04/15 10:48:12;;;;;;;7.07;6.37;;;28.30;59.60;;;;;;5035824;28;20380;-69
2022/04/15 10:50:41;;;;;;;7.67;6.87;;;28.80;59.30;;;;;;5035924;28;20455;-68
2022/04/15 10:53:24;;;;;;;8.13;7.43;;;28.70;58.00;;;;;;5035524;28;20178;-72
2022/04/15 10:55:52;;;;;;;6.60;5.33;;;27.70;56.80;;;;;;5033867;28;20489;-70
2022/04/15 10:58:19;;;;;;;8.07;6.23;;;27.50;60.00;;;;;;5035404;28;20466;-71
2022/04/15 11:01:14;;;;;;;6.73;6.10;;;27.50;59.70;;;;;;5035545;28;20427;-71
2022/04/15 11:03:40;;;;;;;6.57;5.97;;;27.20;58.80;;;;;;5035059;28;20939;-70
2022/04/15 11:06:09;;;;;;;6.40;5.90;;;27.40;60.60;;;;;;5034897;28;20457;-69
2022/04/15 11:08:46;;;;;;;6.73;6.13;;;27.50;61.20;;;;;;5035604;28;20418;-67
2022/04/15 11:11:12;;;;;;;6.93;5.20;;;27.20;58.40;;;;;;5035324;28;20427;-71
2022/04/15 11:13:40;;;;;;;7.07;6.37;;;26.50;59.00;;;;;;5035066;28;20379;-71
2022/04/15 11:16:13;;;;;;;5.80;5.20;;;25.80;59.40;;;;;;5035399;28;20537;-68
2022/04/15 11:18:53;;;;;;;5.20;4.70;;;24.80;59.60;;;;;;5035403;28;20397;-70
2022/04/15 11:21:25;;;;;;;6.27;5.17;;;23.80;58.60;;;;;;5035206;28;20387;-70
2022/04/15 11:23:52;;;;;;;6.53;5.70;;;23.40;62.80;;;;;;5034725;28;20430;-69
2022/04/15 11:26:22;;;;;;;8.70;6.57;;;23.20;66.20;;;;;;5034494;28;20902;-70
2022/04/15 11:28:50;;;;;;;4.70;4.07;;;23.00;62.60;;;;;;5035282;28;20409;-68
2022/04/15 11:31:23;;;;;;;4.63;4.23;;;22.60;64.30;;;;;;5035027;28;20383;-70
2022/04/15 11:33:49;;;;;;;6.67;4.20;;;22.30;65.40;;;;;;5034479;28;20436;-67
2022/04/15 11:36:17;;;;;;;5.23;4.30;;;22.10;65.00;;;;;;5034611;28;20421;-69
2022/04/15 11:38:46;;;;;;;6.27;5.03;;;22.00;67.20;;;;;;5034884;28;20464;-71
2022/04/15 11:41:21;;;;;;;5.37;4.80;;;21.70;67.50;;;;;;5034615;28;20517;-71
2022/04/15 11:44:03;;;;;;;5.07;4.20;;;21.40;68.50;;;;;;5034705;28;20473;-68
2022/04/15 11:46:42;;;;;;;9.63;5.40;;;21.20;70.00;;;;;;5034554;28;20439;-71
2022/04/15 11:49:26;;;;;;;5.13;4.30;;;21.20;71.90;;;;;;5034517;28;20401;-67
2022/04/15 11:51:54;;;;;;;5.40;4.90;;;21.10;72.50;;;;;;5034587;28;20376;-70
2022/04/15 11:54:38;;;;;;;5.70;4.87;;;21.10;72.70;;;;;;5033868;28;20417;-67
2022/04/15 11:57:05;;;;;;;5.23;4.73;;;21.10;71.20;;;;;;5034059;28;20428;-71
2022/04/15 11:59:38;;;;;;;5.07;4.63;;;21.10;73.30;;;;;;5034165;28;20479;-67
2022/04/15 12:02:04;;;;;;;7.70;4.30;;;21.10;72.90;;;;;;5034293;28;20379;-69
2022/04/15 12:04:30;;;;;;;4.97;4.37;;;21.20;72.30;;;;;;5033834;28;20484;-71
2022/04/15 12:06:55;;;;;;;5.37;4.30;;;21.10;73.10;;;;;;5032931;28;20818;-71
2022/04/15 12:09:24;;;;;;;5.37;4.77;;;20.90;71.70;;;;;;5033898;28;20170;-67
2022/04/15 12:11:51;;;;;;;5.07;4.23;;;20.80;72.70;;;;;;5035038;28;20196;-69
2022/04/15 12:14:18;;;;;;;5.60;4.70;;;20.70;74.10;;;;;;5033900;28;20397;-69
2022/04/15 12:16:47;;;;;;;5.90;4.80;;;20.60;74.50;;;;;;5033343;28;20458;-69
2022/04/15 12:19:13;;;;;;;5.20;4.00;;;20.50;74.50;;;;;;5033981;28;20382;-69
2022/04/15 12:21:40;;;;;;;4.93;4.43;;;20.50;77.50;;;;;;5034080;28;20435;-66
2022/04/15 12:24:31;;;;;;;7.80;5.10;;;20.60;75.60;;;;;;5033371;28;20417;-69
2022/04/15 12:27:01;;;;;;;4.80;4.30;;;20.50;76.20;;;;;;5032795;28;20417;-67
2022/04/15 12:32:34;;;;;;;8.93;4.53;;;20.70;78.20;;;;;;5034004;28;20426;-71
2022/04/15 12:35:00;;;;;;;6.03;4.33;;;20.90;76.80;;;;;;5033369;28;20788;-68
2022/04/15 12:37:56;;;;;;;5.70;4.47;;;21.00;73.90;;;;;;5033735;28;20508;-71
2022/04/15 12:40:21;;;;;;;5.53;3.90;;;21.00;73.70;;;;;;5033663;28;20596;-68
2022/04/15 12:42:49;;;;;;;5.20;4.70;;;21.00;72.90;;;;;;5033663;28;20404;-69
2022/04/15 12:45:16;;;;;;;4.60;4.13;;;20.80;73.60;;;;;;5033200;28;20189;-69
2022/04/15 12:47:45;;;;;;;5.30;4.60;;;20.90;75.30;;;;;;5033812;28;20428;-69
2022/04/15 12:50:30;;;;;;;3.40;3.20;;;20.90;73.10;;;;;;5033686;28;20398;-70
2022/04/15 12:52:58;;;;;;;4.70;3.50;;;21.10;73.40;;;;;;5033371;28;20771;-70